createdAt,value
2022-07-29T04:41:14.009Z,18.43
2022-07-29T04:42:13.998Z,18.73
2022-07-29T04:43:14.223Z,18.91
2022-07-29T04:44:14.202Z,18.91
2022-07-29T04:45:16.542Z,18.86
2022-07-29T04:46:14.034Z,19.20
2022-07-29T04:47:13.964Z,19.61
2022-07-29T04:48:13.973Z,20.00
2022-07-29T04:49:13.997Z,20.38
2022-07-29T04:50:13.978Z,20.59
2022-07-29T04:51:13.924Z,20.68
2022-07-29T04:52:13.934Z,20.54
2022-07-29T04:53:13.942Z,20.25
2022-07-29T04:54:14.296Z,20.12
2022-07-29T04:55:13.896Z,20.08
2022-07-29T04:56:13.916Z,20.16
2022-07-29T04:57:13.876Z,20.30
2022-07-29T04:58:13.845Z,20.20
2022-07-29T04:59:13.857Z,20.18
2022-07-29T05:00:13.858Z,20.16
2022-07-29T05:01:13.929Z,20.43
2022-07-29T05:02:13.851Z,20.84
2022-07-29T05:03:13.829Z,21.09
2022-07-29T05:04:16.726Z,21.29
2022-07-29T05:05:49.411Z,21.23
2022-07-29T05:06:46.059Z,21.11
2022-07-29T05:07:19.856Z,21.11
2022-07-29T05:08:13.778Z,21.01
2022-07-29T05:09:16.354Z,20.93
2022-07-29T05:10:15.568Z,20.83
2022-07-29T05:11:18.125Z,20.74
2022-07-29T05:12:14.262Z,20.56
2022-07-29T05:13:15.080Z,20.39
2022-07-29T05:14:38.581Z,20.31
2022-07-29T05:15:22.068Z,20.25
2022-07-29T05:16:18.661Z,20.20
2022-07-29T05:17:15.064Z,20.16
2022-07-29T05:18:26.206Z,20.13
2022-07-29T05:19:16.353Z,20.13
2022-07-29T05:20:13.685Z,20.12
2022-07-29T05:21:16.284Z,20.10
2022-07-29T05:22:22.586Z,20.09
2022-07-29T05:23:13.784Z,20.06
2022-07-29T05:24:14.112Z,20.10
2022-07-29T05:25:15.082Z,20.10
2022-07-29T05:26:16.101Z,20.10
2022-07-29T05:27:13.578Z,20.08
2022-07-29T05:28:13.598Z,20.03
2022-07-29T05:29:43.794Z,20.03
2022-07-29T05:30:15.541Z,19.95
2022-07-29T05:31:14.917Z,19.93
2022-07-29T05:32:20.371Z,19.95
2022-07-29T05:33:36.105Z,19.97
2022-07-29T05:34:24.086Z,19.94
2022-07-29T05:35:13.653Z,19.93
2022-07-29T05:36:16.100Z,19.93
2022-07-29T05:37:20.134Z,19.88
2022-07-29T05:38:13.765Z,19.90
2022-07-29T05:39:19.169Z,19.90
2022-07-29T05:40:23.555Z,19.95
2022-07-29T05:41:14.086Z,20.05
2022-07-29T05:42:20.076Z,20.15
2022-07-29T05:43:22.588Z,20.23
2022-07-29T05:44:55.291Z,20.24
2022-07-29T05:45:20.814Z,20.25
2022-07-29T05:46:29.880Z,20.27
2022-07-29T05:47:25.061Z,20.31
2022-07-29T05:48:14.048Z,20.39
2022-07-29T05:49:26.971Z,20.43
2022-07-29T05:50:19.197Z,20.47
2022-07-29T05:51:16.089Z,20.54
2022-07-29T05:52:14.274Z,20.64
2022-07-29T05:53:20.102Z,20.66
2022-07-29T05:54:23.488Z,20.68
2022-07-29T05:55:39.371Z,20.74
2022-07-29T05:56:14.086Z,20.80
2022-07-29T05:57:27.005Z,20.87
2022-07-29T05:58:13.356Z,20.89
2022-07-29T05:59:18.351Z,20.91
2022-07-29T06:00:24.847Z,20.91
2022-07-29T06:01:15.178Z,20.95
2022-07-29T06:02:23.898Z,20.99
2022-07-29T06:12:32.378Z,21.34
2022-07-29T06:13:29.433Z,21.32
2022-07-29T06:14:32.900Z,21.32
2022-07-29T06:15:58.627Z,21.34
2022-07-29T06:16:48.648Z,21.35
2022-07-29T06:17:40.168Z,21.38
2022-07-29T06:20:04.569Z,21.39
2022-07-29T06:20:27.149Z,21.48
2022-07-29T06:21:46.372Z,21.51
2022-07-29T06:22:26.298Z,21.54
2022-07-29T06:23:40.373Z,21.60
2022-07-29T06:25:49.850Z,21.64
2022-07-29T06:26:05.522Z,21.71
2022-07-29T06:27:12.930Z,21.75
2022-07-29T06:29:40.221Z,21.79
2022-07-29T06:30:39.437Z,21.90
2022-07-29T06:31:07.286Z,21.91
2022-07-29T06:33:33.692Z,21.92
2022-07-29T06:33:48.389Z,21.98
2022-07-29T06:35:37.755Z,21.99
2022-07-29T06:37:30.189Z,21.99
2022-07-29T06:37:46.072Z,22.04
2022-07-29T06:38:49.172Z,22.10
2022-07-29T06:39:40.835Z,22.13
2022-07-29T06:40:40.599Z,22.16
2022-07-29T06:41:39.877Z,22.17
2022-07-29T06:42:49.180Z,22.19
2022-07-29T06:43:51.809Z,22.22
2022-07-29T06:44:42.167Z,22.25
2022-07-29T06:45:52.432Z,22.28
2022-07-29T06:46:43.424Z,22.29
2022-07-29T06:48:47.206Z,22.31
2022-07-29T06:48:55.869Z,22.34
2022-07-29T06:49:55.377Z,22.35
2022-07-29T06:50:53.390Z,22.37
2022-07-29T06:51:52.527Z,22.39
2022-07-29T06:52:56.263Z,22.43
2022-07-29T06:53:59.611Z,22.46
2022-07-29T06:54:52.552Z,22.52
2022-07-29T06:55:52.567Z,22.53
2022-07-29T06:56:52.520Z,22.56
2022-07-29T06:57:52.510Z,22.54
2022-07-29T06:58:52.518Z,22.56
2022-07-29T06:59:52.495Z,22.50
2022-07-29T07:00:52.521Z,22.44
2022-07-29T07:01:53.299Z,22.39
2022-07-29T07:02:52.495Z,22.32
2022-07-29T07:03:57.081Z,22.28
2022-07-29T07:04:54.169Z,22.29
2022-07-29T07:05:52.477Z,22.32
2022-07-29T07:06:52.657Z,22.35
2022-07-29T07:07:54.135Z,22.39
2022-07-29T07:08:52.398Z,22.39
2022-07-29T07:09:54.382Z,22.46
2022-07-29T07:10:53.384Z,22.50
2022-07-29T07:11:54.891Z,22.54
2022-07-29T07:12:54.504Z,22.57
2022-07-29T07:13:56.187Z,22.57
2022-07-29T07:14:53.388Z,22.64
2022-07-29T07:15:55.102Z,22.68
2022-07-29T07:16:52.772Z,22.64
2022-07-29T07:17:52.314Z,22.59
2022-07-29T07:18:52.885Z,22.54
2022-07-29T07:19:53.285Z,22.53
2022-07-29T07:20:55.626Z,22.65
2022-07-29T07:21:53.214Z,22.74
2022-07-29T07:22:53.459Z,22.82
2022-07-29T07:23:54.259Z,22.89
2022-07-29T07:24:52.327Z,22.97
2022-07-29T07:25:52.292Z,23.07
2022-07-29T07:26:54.061Z,23.19
2022-07-29T07:27:55.037Z,23.31
2022-07-29T07:28:52.449Z,23.40
2022-07-29T07:29:54.640Z,23.49
2022-07-29T07:30:52.220Z,23.57
2022-07-29T07:31:57.555Z,23.65
2022-07-29T07:32:54.713Z,23.70
2022-07-29T07:33:52.941Z,23.71
2022-07-29T07:34:52.173Z,23.76
2022-07-29T07:35:57.901Z,23.79
2022-07-29T07:36:52.150Z,23.77
2022-07-29T07:37:52.681Z,23.82
2022-07-29T07:38:52.144Z,23.79
2022-07-29T07:39:54.857Z,23.80
2022-07-29T07:40:57.125Z,23.87
2022-07-29T07:41:52.925Z,23.90
2022-07-29T07:42:53.360Z,24.01
2022-07-29T07:43:55.651Z,24.12
2022-07-29T07:45:12.455Z,24.22
2022-07-29T07:45:54.007Z,24.26
2022-07-29T07:46:52.360Z,24.24
2022-07-29T07:47:52.922Z,24.26
2022-07-29T07:48:52.116Z,24.31
2022-07-29T07:49:59.347Z,24.37
2022-07-29T07:50:56.794Z,24.41
2022-07-29T07:51:52.018Z,24.45
2022-07-29T07:52:52.256Z,24.47
2022-07-29T07:53:52.022Z,24.50
2022-07-29T07:54:52.017Z,24.52
2022-07-29T07:56:53.185Z,24.56
2022-07-29T07:57:52.016Z,24.63
2022-07-29T07:58:52.861Z,24.76
2022-07-29T08:00:23.020Z,24.80
2022-07-29T08:02:29.807Z,24.87
2022-07-29T08:02:35.171Z,24.94
2022-07-29T08:03:36.785Z,24.94
2022-07-29T08:05:04.902Z,24.91
2022-07-29T08:05:38.660Z,24.90
2022-07-29T08:07:01.881Z,24.82
2022-07-29T08:07:34.591Z,24.83
2022-07-29T08:08:34.559Z,24.87
2022-07-29T08:11:14.590Z,25.07
2022-07-29T08:12:24.442Z,25.05
2022-07-29T08:13:14.873Z,25.10
2022-07-29T08:14:56.262Z,25.10
2022-07-29T08:15:14.690Z,25.12
2022-07-29T08:17:51.380Z,25.09
2022-07-29T08:18:12.369Z,25.16
2022-07-29T08:19:20.954Z,25.16
2022-07-29T08:20:11.654Z,25.13
2022-07-29T08:31:09.047Z,25.01
2022-07-29T08:45:36.892Z,26.29
2022-07-29T08:46:36.818Z,26.28
2022-07-29T08:47:36.845Z,26.35
2022-07-29T08:48:36.860Z,26.31
2022-07-29T08:49:36.825Z,26.22
2022-07-29T08:50:36.815Z,26.21
2022-07-29T08:51:36.784Z,26.27
2022-07-29T08:52:36.791Z,26.31
2022-07-29T08:53:36.781Z,26.35
2022-07-29T08:54:37.010Z,26.42
2022-07-29T08:55:36.755Z,26.43
2022-07-29T08:56:36.792Z,26.35
2022-07-29T08:57:37.128Z,26.28
2022-07-29T08:58:38.498Z,26.24
2022-07-29T08:59:36.712Z,26.24
2022-07-29T09:00:36.693Z,26.24
2022-07-29T09:01:45.226Z,26.24
2022-07-29T09:02:36.669Z,26.29
2022-07-29T09:03:36.714Z,26.36
2022-07-29T09:04:36.645Z,26.42
2022-07-29T09:08:50.960Z,26.54
2022-07-29T09:13:15.621Z,26.46
2022-07-29T09:17:51.398Z,25.83
2022-07-29T09:18:51.438Z,25.84
2022-07-29T09:19:51.398Z,25.89
2022-07-29T09:20:51.536Z,25.94
2022-07-29T09:21:51.387Z,26.02
2022-07-29T09:22:51.400Z,26.04
2022-07-29T09:23:51.374Z,26.04
2022-07-29T09:24:51.376Z,26.06
2022-07-29T09:25:51.373Z,26.15
2022-07-29T09:26:51.651Z,26.20
2022-07-29T09:27:51.337Z,26.27
2022-07-29T09:28:51.356Z,26.28
2022-07-29T09:29:51.338Z,26.31
2022-07-29T09:30:51.325Z,26.28
2022-07-29T09:31:51.385Z,26.24
2022-07-29T09:32:51.294Z,26.05
2022-07-29T09:33:51.284Z,25.98
2022-07-29T09:34:53.680Z,25.94
2022-07-29T09:35:57.169Z,25.93
2022-07-29T09:36:51.279Z,25.90
2022-07-29T09:37:51.286Z,25.79
2022-07-29T09:38:51.246Z,25.74
2022-07-29T09:39:51.240Z,25.64
2022-07-29T09:40:51.225Z,25.54
2022-07-29T09:41:51.267Z,25.49
2022-07-29T09:42:51.215Z,25.52
2022-07-29T09:43:51.198Z,25.43
2022-07-29T09:44:51.190Z,25.39
2022-07-29T09:45:51.186Z,25.39
2022-07-29T09:46:51.238Z,25.43
2022-07-29T09:47:51.176Z,25.44
2022-07-29T09:48:51.179Z,25.49
2022-07-29T09:49:51.147Z,25.53
2022-07-29T09:50:51.197Z,25.56
2022-07-29T09:51:51.163Z,25.61
2022-07-29T09:52:51.207Z,25.53
2022-07-29T09:53:51.138Z,25.31
2022-07-29T09:54:51.161Z,25.25
2022-07-29T09:55:51.636Z,25.31
2022-07-29T09:56:51.100Z,25.37
2022-07-29T09:57:51.076Z,25.32
2022-07-29T09:58:51.113Z,25.27
2022-07-29T09:59:51.052Z,25.25
2022-07-29T10:00:51.164Z,25.32
2022-07-29T10:01:51.061Z,25.38
2022-07-29T10:02:51.092Z,25.42
2022-07-29T10:03:51.154Z,25.38
2022-07-29T10:04:51.011Z,25.32
2022-07-29T10:05:51.007Z,25.22
2022-07-29T10:06:51.050Z,25.07
2022-07-29T10:07:53.975Z,24.98
2022-07-29T10:08:50.977Z,24.97
2022-07-29T10:09:52.706Z,24.95
2022-07-29T10:10:50.954Z,24.97
2022-07-29T10:11:50.991Z,25.02
2022-07-29T10:12:50.936Z,25.10
2022-07-29T10:13:50.938Z,25.16
2022-07-29T10:14:50.926Z,25.17
2022-07-29T10:15:50.941Z,25.19
2022-07-29T10:18:45.876Z,25.27
2022-07-29T10:19:45.903Z,25.34
2022-07-29T10:20:45.887Z,25.44
2022-07-29T10:21:45.900Z,25.52
2022-07-29T10:22:54.117Z,25.57
2022-07-29T10:23:46.248Z,25.57
2022-07-29T10:24:45.847Z,25.62
2022-07-29T10:25:46.701Z,25.57
2022-07-29T10:26:45.867Z,25.61
2022-07-29T10:27:45.857Z,25.59
2022-07-29T10:28:45.811Z,25.59
2022-07-29T10:29:45.825Z,25.61
2022-07-29T10:30:45.799Z,25.59
2022-07-29T10:31:45.853Z,25.67
2022-07-29T10:32:45.782Z,25.72
2022-07-29T10:33:45.775Z,25.77
2022-07-29T10:34:45.761Z,25.82
2022-07-29T10:35:45.784Z,25.87
2022-07-29T10:36:45.782Z,25.91
2022-07-29T10:37:46.173Z,25.97
2022-07-29T10:38:47.128Z,26.05
2022-07-29T10:39:49.859Z,26.05
2022-07-29T10:40:45.712Z,26.05
2022-07-29T10:41:45.757Z,26.17
2022-07-29T10:42:45.697Z,26.35
2022-07-29T10:43:45.686Z,26.47
2022-07-29T10:44:45.670Z,26.47
2022-07-29T10:45:45.700Z,26.52
2022-07-29T10:46:45.787Z,26.62
2022-07-29T10:47:45.646Z,26.69
2022-07-29T10:48:45.658Z,26.80
2022-07-29T10:49:45.634Z,26.80
2022-07-29T10:50:45.648Z,26.80
2022-07-29T10:51:45.671Z,26.81
2022-07-29T10:52:45.599Z,26.73
2022-07-29T10:53:45.608Z,26.81
2022-07-29T10:54:45.584Z,26.86
2022-07-29T10:55:45.580Z,26.91
2022-07-29T10:56:45.567Z,26.83
2022-07-29T12:07:11.129Z,26.61
2022-07-29T12:07:20.399Z,26.08
2022-07-29T12:08:19.540Z,26.09
2022-07-29T12:09:19.529Z,26.17
2022-07-29T12:10:30.012Z,26.08
2022-07-29T12:13:08.592Z,26.20
2022-07-29T12:14:08.631Z,26.27
2022-07-29T12:15:17.084Z,26.32
2022-07-29T12:16:16.737Z,26.42
2022-07-29T12:17:08.579Z,26.55
2022-07-29T12:18:08.562Z,26.47
2022-07-29T12:19:16.622Z,26.43
2022-07-29T12:20:08.625Z,26.27
2022-07-29T12:21:08.537Z,26.06
2022-07-29T12:22:08.520Z,26.05
2022-07-29T12:23:08.513Z,26.06
2022-07-29T12:24:09.385Z,26.20
2022-07-29T12:25:32.831Z,26.36
2022-07-29T12:26:10.659Z,26.43
2022-07-29T12:27:08.465Z,26.49
2022-07-29T12:28:08.452Z,26.57
2022-07-29T12:29:14.075Z,26.62
2022-07-29T12:30:08.499Z,26.65
2022-07-29T12:31:08.514Z,26.65
2022-07-29T12:32:15.102Z,26.69
2022-07-29T12:33:08.425Z,26.72
2022-07-29T12:34:08.418Z,26.79
2022-07-29T12:35:08.404Z,26.86
2022-07-29T12:36:12.806Z,26.87
2022-07-29T12:37:08.386Z,26.77
2022-07-29T12:38:08.387Z,26.64
2022-07-29T12:39:08.353Z,26.59
2022-07-29T12:40:08.403Z,26.65
2022-07-29T12:41:08.358Z,26.69
2022-07-29T12:42:12.196Z,26.79
2022-07-29T12:43:08.347Z,26.87
2022-07-29T12:44:08.324Z,26.92
2022-07-29T12:45:08.319Z,26.94
2022-07-29T12:46:08.394Z,26.83
2022-07-29T12:47:08.296Z,26.74
2022-07-29T12:48:08.293Z,26.73
2022-07-29T12:49:08.451Z,26.67
2022-07-29T12:50:08.316Z,26.64
2022-07-29T12:51:08.259Z,26.61
2022-07-29T12:52:08.266Z,26.64
2022-07-29T12:53:08.253Z,26.73
2022-07-29T12:54:08.242Z,26.81
2022-07-29T12:55:08.240Z,26.86
2022-07-29T12:56:26.588Z,26.94
2022-07-29T12:57:08.206Z,26.84
2022-07-29T12:58:08.203Z,26.80
2022-07-29T12:59:08.185Z,26.68
2022-07-29T13:00:08.228Z,26.59
2022-07-29T13:01:17.144Z,26.42
2022-07-29T13:02:08.203Z,26.44
2022-07-29T13:03:08.157Z,26.50
2022-07-29T13:04:08.142Z,26.55
2022-07-29T13:05:08.233Z,26.55
2022-07-29T13:06:08.128Z,26.47
2022-07-29T13:07:08.249Z,26.50
2022-07-29T13:08:08.110Z,26.50
2022-07-29T13:09:08.109Z,26.55
2022-07-29T13:10:08.183Z,26.58
2022-07-29T13:11:08.087Z,26.61
2022-07-29T13:12:08.135Z,26.65
2022-07-29T13:13:08.069Z,26.72
2022-07-29T13:14:08.077Z,26.73
2022-07-29T13:15:08.112Z,26.79
2022-07-29T13:16:08.096Z,26.80
2022-07-29T13:17:08.042Z,26.80
2022-07-29T13:18:08.035Z,26.80
2022-07-29T13:19:08.017Z,26.72
2022-07-29T13:20:08.920Z,26.67
2022-07-29T13:21:07.995Z,26.72
2022-07-29T13:22:08.008Z,26.76
2022-07-29T13:23:07.984Z,26.74
2022-07-29T13:24:07.973Z,26.69
2022-07-29T13:25:08.027Z,26.72
2022-07-29T13:26:07.955Z,26.62
2022-07-29T13:27:07.961Z,26.59
2022-07-29T13:28:07.941Z,26.68
2022-07-29T13:29:07.935Z,26.65
2022-07-29T13:30:07.982Z,26.55
2022-07-29T13:31:07.922Z,26.54
2022-07-29T13:32:07.925Z,26.55
2022-07-29T13:33:07.894Z,26.44
2022-07-29T13:34:07.886Z,26.42
2022-07-29T13:35:07.880Z,26.44
2022-07-29T13:36:07.880Z,26.54
2022-07-29T13:37:07.888Z,26.55
2022-07-29T13:38:07.858Z,26.64
2022-07-29T13:39:07.843Z,26.72
2022-07-29T13:40:07.852Z,26.83
2022-07-29T13:41:07.829Z,26.92
2022-07-29T13:42:10.779Z,26.98
2022-07-29T13:43:07.828Z,27.06
2022-07-29T13:44:07.802Z,27.10
2022-07-29T13:45:07.804Z,27.06
2022-07-29T13:46:07.835Z,26.74
2022-07-29T13:47:07.785Z,26.61
2022-07-29T13:48:07.776Z,26.59
2022-07-29T13:49:07.901Z,26.62
2022-07-29T13:50:07.784Z,26.68
2022-07-29T13:51:07.741Z,26.69
2022-07-29T13:52:07.745Z,26.72
2022-07-29T13:53:07.721Z,26.73
2022-07-29T13:54:07.723Z,26.73
2022-07-29T13:55:07.706Z,26.76
2022-07-29T13:56:07.698Z,26.76
2022-07-29T13:57:07.701Z,26.73
2022-07-29T13:58:07.680Z,26.74
2022-07-29T13:59:07.687Z,26.73
2022-07-29T14:00:07.667Z,26.68
2022-07-29T14:01:07.745Z,26.69
2022-07-29T14:02:07.674Z,26.74
2022-07-29T14:03:07.635Z,26.79
2022-07-29T14:04:07.702Z,26.83
2022-07-29T14:05:08.684Z,26.86
2022-07-29T14:06:07.620Z,26.89
2022-07-29T14:07:07.614Z,26.89
2022-07-29T14:08:07.598Z,26.91
2022-07-29T14:09:07.586Z,26.94
2022-07-29T14:10:07.581Z,26.96
2022-07-29T14:11:07.562Z,26.99
2022-07-29T14:12:07.579Z,27.02
2022-07-29T14:13:21.825Z,26.99
2022-07-29T14:14:07.549Z,27.01
2022-07-29T14:15:07.532Z,27.02
2022-07-29T14:16:07.529Z,27.02
2022-07-29T14:17:07.985Z,26.99
2022-07-29T14:18:07.518Z,26.99
2022-07-29T14:19:07.518Z,26.99
2022-07-29T14:20:07.505Z,26.95
2022-07-29T14:21:07.487Z,26.89
2022-07-29T14:22:07.493Z,26.87
2022-07-29T14:23:07.519Z,26.81
2022-07-29T14:24:16.292Z,26.77
2022-07-29T14:25:14.747Z,26.72
2022-07-29T14:26:08.775Z,26.69
2022-07-29T14:27:07.664Z,26.67
2022-07-29T14:28:07.525Z,26.67
2022-07-29T14:29:07.452Z,26.62
2022-07-29T14:30:07.438Z,26.59
2022-07-29T14:31:07.402Z,26.55
2022-07-29T14:32:07.567Z,26.55
2022-07-29T14:33:07.403Z,26.57
2022-07-29T14:34:07.410Z,26.57
2022-07-29T14:35:07.393Z,26.57
2022-07-29T14:36:07.364Z,26.55
2022-07-29T14:37:07.373Z,26.54
2022-07-29T14:38:07.359Z,26.57
2022-07-29T14:39:07.351Z,26.57
2022-07-29T14:40:07.325Z,26.57
2022-07-29T14:41:07.316Z,26.57
2022-07-29T14:42:07.352Z,26.57
2022-07-29T14:43:07.297Z,26.55
2022-07-29T14:44:07.295Z,26.52
2022-07-29T14:45:07.316Z,26.47
2022-07-29T14:46:08.590Z,26.36
2022-07-29T14:47:08.047Z,26.25
2022-07-29T14:48:07.280Z,26.18
2022-07-29T14:49:07.305Z,26.11
2022-07-29T14:50:07.277Z,26.05
2022-07-29T14:51:07.233Z,26.02
2022-07-29T14:52:07.242Z,25.97
2022-07-29T14:53:07.217Z,25.91
2022-07-29T14:54:07.204Z,25.89
2022-07-29T14:55:16.378Z,25.84
2022-07-29T14:56:34.170Z,25.82
2022-07-29T14:57:07.207Z,25.77
2022-07-29T14:58:12.084Z,25.71
2022-07-29T14:59:07.180Z,25.68
2022-07-29T15:00:07.154Z,25.31
2022-07-29T15:01:07.216Z,25.07
2022-07-29T15:02:07.184Z,24.98
2022-07-29T15:03:11.188Z,24.87
2022-07-29T15:04:07.119Z,24.79
2022-07-29T15:05:07.119Z,24.68
2022-07-29T15:06:07.097Z,24.61
2022-07-29T15:07:07.109Z,24.60
2022-07-29T15:08:07.081Z,24.56
2022-07-29T15:09:07.092Z,24.47
2022-07-29T15:10:07.074Z,24.38
2022-07-29T15:11:07.063Z,24.29
2022-07-29T15:12:07.079Z,24.20
2022-07-29T15:13:07.038Z,24.17
2022-07-29T15:14:07.032Z,24.13
2022-07-29T15:15:07.074Z,24.10
2022-07-29T15:16:07.075Z,24.05
2022-07-29T15:17:07.126Z,23.94
2022-07-29T15:18:07.048Z,23.82
2022-07-29T15:19:07.034Z,23.65
2022-07-29T15:20:06.988Z,23.57
2022-07-29T15:21:06.998Z,23.45
2022-07-29T15:22:07.091Z,23.39
2022-07-29T15:23:06.978Z,23.29
2022-07-29T15:24:06.957Z,23.22
2022-07-29T15:25:06.944Z,23.17
2022-07-29T15:26:06.922Z,23.11
2022-07-29T15:27:06.929Z,23.04
2022-07-29T15:28:06.925Z,22.99
2022-07-29T15:29:06.920Z,22.86
2022-07-29T15:30:06.890Z,22.74
2022-07-29T15:31:06.895Z,22.62
2022-07-29T15:32:06.931Z,22.56
2022-07-29T15:33:06.883Z,22.56
2022-07-29T15:34:06.851Z,22.50
2022-07-29T15:35:06.882Z,22.47
2022-07-29T15:36:06.846Z,22.39
2022-07-29T15:37:06.852Z,22.38
2022-07-29T15:38:06.828Z,22.35
2022-07-29T15:39:06.822Z,22.32
2022-07-29T15:40:06.812Z,22.31
2022-07-29T15:41:06.804Z,22.28
2022-07-29T15:42:06.806Z,22.23
2022-07-29T15:43:07.007Z,22.16
2022-07-29T15:44:06.782Z,22.12
2022-07-29T15:45:06.771Z,22.04
2022-07-29T15:46:06.843Z,21.99
2022-07-29T15:47:06.747Z,21.95
2022-07-29T15:48:06.746Z,21.94
2022-07-29T15:49:06.774Z,21.88
2022-07-29T15:50:06.729Z,21.78
2022-07-29T15:51:06.712Z,21.74
2022-07-29T15:52:06.724Z,21.75
2022-07-29T15:53:06.693Z,21.78
2022-07-29T15:54:06.680Z,21.82
2022-07-29T15:55:06.696Z,21.85
2022-07-29T15:56:06.675Z,21.91
2022-07-29T15:57:06.657Z,21.91
2022-07-29T15:58:06.659Z,21.94
2022-07-29T15:59:06.646Z,21.94
2022-07-29T16:00:06.629Z,21.94
2022-07-29T16:01:06.685Z,22.02
2022-07-29T16:02:06.616Z,22.02
2022-07-29T16:03:06.628Z,21.95
2022-07-29T16:04:06.657Z,21.92
2022-07-29T16:05:09.279Z,21.82
2022-07-29T16:06:06.577Z,21.71
2022-07-29T16:07:06.573Z,21.61
2022-07-29T16:08:06.622Z,21.59
2022-07-29T16:09:06.553Z,21.53
2022-07-29T16:10:06.564Z,21.50
2022-07-29T16:11:06.540Z,21.41
2022-07-29T16:12:15.422Z,21.30
2022-07-29T16:13:06.545Z,21.20
2022-07-29T16:14:06.504Z,21.11
2022-07-29T16:15:09.912Z,21.05
2022-07-29T16:16:06.490Z,21.06
2022-07-29T16:17:06.497Z,21.05
2022-07-29T16:18:06.574Z,21.06
2022-07-29T16:19:06.487Z,21.01
2022-07-29T16:20:06.509Z,20.99
2022-07-29T16:21:06.450Z,20.99
2022-07-29T16:22:06.486Z,20.99
2022-07-29T16:23:06.497Z,20.93
2022-07-29T16:24:06.526Z,20.83
2022-07-29T16:25:06.513Z,20.77
2022-07-29T16:26:06.434Z,20.74
2022-07-29T16:27:06.435Z,20.74
2022-07-29T16:28:06.393Z,20.71
2022-07-29T16:29:06.418Z,20.65
2022-07-29T16:30:06.387Z,20.56
2022-07-29T16:31:06.362Z,20.50
2022-07-29T16:32:06.567Z,20.39
2022-07-29T16:33:08.354Z,20.33
2022-07-29T16:34:06.357Z,20.24
2022-07-29T16:35:06.338Z,20.18
2022-07-29T16:36:06.316Z,20.15
2022-07-29T16:37:06.306Z,20.10
2022-07-29T16:38:06.309Z,20.02
2022-07-29T16:39:06.303Z,19.97
2022-07-29T16:40:06.299Z,19.95
2022-07-29T16:41:06.305Z,19.93
2022-07-29T16:42:06.298Z,19.86
2022-07-29T16:43:06.573Z,19.79
2022-07-29T16:44:06.375Z,19.80
2022-07-29T16:45:06.253Z,19.87
2022-07-29T16:46:06.325Z,19.87
2022-07-29T16:47:06.334Z,19.83
2022-07-29T16:48:06.224Z,19.79
2022-07-29T16:49:06.294Z,19.79
2022-07-29T16:50:06.228Z,19.79
2022-07-29T16:51:06.208Z,19.76
2022-07-29T16:52:06.170Z,19.75
2022-07-29T16:53:06.174Z,19.75
2022-07-29T16:54:06.168Z,19.76
2022-07-29T16:55:06.178Z,19.72
2022-07-29T16:56:06.157Z,19.66
2022-07-29T16:57:06.191Z,19.68
2022-07-29T16:58:06.132Z,19.73
2022-07-29T16:59:06.123Z,19.72
2022-07-29T17:00:06.138Z,19.73
2022-07-29T17:01:06.153Z,19.72
2022-07-29T17:02:06.152Z,19.73
2022-07-29T17:03:06.092Z,19.75
2022-07-29T17:04:06.081Z,19.72
2022-07-29T17:05:06.097Z,19.69
2022-07-29T17:06:06.099Z,19.66
2022-07-29T17:07:06.052Z,19.63
2022-07-29T17:08:06.037Z,19.58
2022-07-29T17:09:06.058Z,19.54
2022-07-29T17:10:06.113Z,19.50
2022-07-29T17:11:06.048Z,19.46
2022-07-29T17:12:06.025Z,19.43
2022-07-29T17:13:05.993Z,19.48
2022-07-29T17:14:05.973Z,19.50
2022-07-29T17:15:05.990Z,19.51
2022-07-29T17:16:06.066Z,19.53
2022-07-29T17:17:13.701Z,19.55
2022-07-29T17:18:12.520Z,19.61
2022-07-29T17:19:05.941Z,19.61
2022-07-29T17:20:05.961Z,19.57
2022-07-29T17:21:05.946Z,19.55
2022-07-29T17:22:19.072Z,19.53
2022-07-29T17:23:05.921Z,19.48
2022-07-29T17:24:05.908Z,19.50
2022-07-29T17:25:05.938Z,19.53
2022-07-29T17:26:05.942Z,19.50
2022-07-29T17:27:08.705Z,19.47
2022-07-29T17:28:05.954Z,19.47
2022-07-29T17:29:05.850Z,19.47
2022-07-29T17:30:05.832Z,19.47
2022-07-29T17:31:05.983Z,19.47
2022-07-29T17:32:07.570Z,19.50
2022-07-29T17:33:05.810Z,19.48
2022-07-29T17:34:05.826Z,19.48
2022-07-29T17:35:05.826Z,19.48
2022-07-29T17:36:05.793Z,19.50
2022-07-29T17:37:05.816Z,19.48
2022-07-29T17:38:05.816Z,19.42
2022-07-29T17:39:05.768Z,19.40
2022-07-29T17:40:05.751Z,19.46
2022-07-29T17:41:07.791Z,19.53
2022-07-29T17:42:07.166Z,19.54
2022-07-29T17:43:05.814Z,19.48
2022-07-29T17:44:05.737Z,19.42
2022-07-29T17:45:05.710Z,19.36
2022-07-29T17:46:07.841Z,19.29
2022-07-29T17:47:15.554Z,19.18
2022-07-29T17:48:18.148Z,19.10
2022-07-29T17:49:10.106Z,18.98
2022-07-29T17:50:05.711Z,18.94
2022-07-29T17:51:05.915Z,18.91
2022-07-29T17:52:05.838Z,18.84
2022-07-29T17:53:15.542Z,18.82
2022-07-29T17:54:07.394Z,18.82
2022-07-29T17:57:02.912Z,18.79
2022-07-29T17:58:08.213Z,18.74
2022-07-29T17:59:06.266Z,18.76
2022-07-29T17:59:59.651Z,18.73
2022-07-29T18:01:23.426Z,18.67
2022-07-29T18:02:01.251Z,18.67
2022-07-29T18:03:00.689Z,18.67
2022-07-29T18:04:03.342Z,18.64
2022-07-29T18:05:01.399Z,18.62
2022-07-29T18:06:00.845Z,18.67
2022-07-29T18:07:01.020Z,18.68
2022-07-29T18:08:00.550Z,18.68
2022-07-29T18:14:11.831Z,18.74
2022-07-29T18:15:09.656Z,18.74
2022-07-29T18:16:09.479Z,18.76
2022-07-29T18:17:11.369Z,18.73
2022-07-29T18:21:54.448Z,18.47
2022-07-29T18:30:24.824Z,18.34
2022-07-29T18:31:23.696Z,18.37
2022-07-29T18:32:18.776Z,18.37
2022-07-29T18:33:21.795Z,18.34
2022-07-29T18:36:15.074Z,18.27
2022-07-29T18:52:55.969Z,17.46
2022-07-29T18:56:28.338Z,17.47
2022-07-29T18:56:34.536Z,17.46
2022-07-29T18:57:54.644Z,17.44
2022-07-29T18:58:35.062Z,17.38
2022-07-29T18:59:34.261Z,17.33
2022-07-29T19:00:41.470Z,17.30
2022-07-29T19:01:44.464Z,17.29
2022-07-29T19:02:33.705Z,17.26
2022-07-29T19:03:33.205Z,17.25
2022-07-29T19:04:33.455Z,17.26
2022-07-29T19:05:36.495Z,17.28
2022-07-29T19:06:37.038Z,17.28
2022-07-29T19:07:33.203Z,17.28
2022-07-29T19:08:36.613Z,17.29
2022-07-29T19:11:55.528Z,17.29
2022-07-29T19:12:03.689Z,17.28
2022-07-29T19:13:00.803Z,17.28
2022-07-29T19:14:00.780Z,17.30
2022-07-29T19:15:00.773Z,17.36
2022-07-29T19:16:00.816Z,17.38
2022-07-29T19:17:04.456Z,17.41
2022-07-29T19:18:09.129Z,17.41
2022-07-29T19:19:01.548Z,17.41
2022-07-29T19:20:00.786Z,17.41
2022-07-29T19:21:00.760Z,17.43
2022-07-29T19:22:00.748Z,17.44
2022-07-29T19:23:05.370Z,17.44
2022-07-29T19:29:13.169Z,17.40
2022-07-29T19:34:15.609Z,17.35
2022-07-29T19:34:46.468Z,17.29
2022-07-29T19:37:30.932Z,17.20
2022-07-29T19:38:30.790Z,17.17
2022-07-29T19:41:15.393Z,17.14
2022-07-29T19:43:54.315Z,17.15
2022-07-29T19:46:07.340Z,17.15
2022-07-29T19:46:19.383Z,17.11
2022-07-29T19:49:12.230Z,17.10
2022-07-29T19:50:52.458Z,17.08
2022-07-29T19:51:13.082Z,17.11
2022-07-29T19:52:15.055Z,17.11
2022-07-29T19:59:01.739Z,17.15
2022-07-29T20:00:02.682Z,17.18
2022-07-29T20:00:52.306Z,17.18
2022-07-29T20:01:51.256Z,17.15
2022-07-29T20:02:50.741Z,17.13
2022-07-29T20:05:37.673Z,17.11
2022-07-29T20:06:43.274Z,17.08
2022-07-29T20:11:06.083Z,17.07
2022-07-29T20:12:06.467Z,17.07
2022-07-29T20:15:10.805Z,17.03
2022-07-29T20:16:04.590Z,17.00
2022-07-29T20:17:06.509Z,17.00
2022-07-29T20:18:07.944Z,17.00
2022-07-29T20:19:04.524Z,16.99
2022-07-29T20:20:07.564Z,16.98
2022-07-29T20:21:37.851Z,16.99
2022-07-29T20:22:49.808Z,16.99
2022-07-29T20:23:06.365Z,16.96
2022-07-29T20:24:15.565Z,16.95
2022-07-29T20:25:29.928Z,16.93
2022-07-29T20:26:09.739Z,16.92
2022-07-29T20:27:26.276Z,16.92
2022-07-29T20:28:04.495Z,16.92
2022-07-29T20:29:06.503Z,16.93
2022-07-29T20:30:06.241Z,16.95
2022-07-29T20:31:13.431Z,16.93
2022-07-29T20:32:05.038Z,16.95
2022-07-29T20:33:17.997Z,16.98
2022-07-29T20:34:04.366Z,16.96
2022-07-29T20:35:04.835Z,17.00
2022-07-29T20:36:04.350Z,17.04
2022-07-29T20:37:04.355Z,16.99
2022-07-29T20:38:07.822Z,16.96
2022-07-29T20:39:05.561Z,16.92
2022-07-29T20:40:12.644Z,16.90
2022-07-29T20:41:42.605Z,16.92
2022-07-29T20:42:04.294Z,16.89
2022-07-29T20:43:10.595Z,16.89
2022-07-29T20:44:04.827Z,16.88
2022-07-29T20:45:08.599Z,16.86